sensor_id;sensor_type;location;lat;lon;timestamp;P1;durP1;ratioP1;P2;durP2;ratioP2
65162;SDS011;51751;55.714;37.436;2022-12-24T00:00:35;10.05;;;6.60;;
65162;SDS011;51751;55.714;37.436;2022-12-24T00:03:01;13.35;;;6.90;;
65162;SDS011;51751;55.714;37.436;2022-12-24T00:05:27;11.35;;;6.70;;
65162;SDS011;51751;55.714;37.436;2022-12-24T00:07:54;13.90;;;6.47;;
65162;SDS011;51751;55.714;37.436;2022-12-24T00:10:20;12.15;;;7.13;;
65162;SDS011;51751;55.714;37.436;2022-12-24T00:12:45;11.23;;;6.40;;
65162;SDS011;51751;55.714;37.436;2022-12-24T00:15:11;10.73;;;6.80;;
65162;SDS011;51751;55.714;37.436;2022-12-24T00:17:37;9.18;;;6.35;;
65162;SDS011;51751;55.714;37.436;2022-12-24T00:20:03;10.88;;;6.57;;
65162;SDS011;51751;55.714;37.436;2022-12-24T00:22:30;13.38;;;7.13;;
65162;SDS011;51751;55.714;37.436;2022-12-24T00:24:56;12.20;;;7.43;;
65162;SDS011;51751;55.714;37.436;2022-12-24T00:27:21;9.50;;;6.53;;
65162;SDS011;51751;55.714;37.436;2022-12-24T00:29:48;11.50;;;7.40;;
65162;SDS011;51751;55.714;37.436;2022-12-24T00:32:14;12.27;;;7.35;;
65162;SDS011;51751;55.714;37.436;2022-12-24T00:34:58;12.90;;;7.05;;
65162;SDS011;51751;55.714;37.436;2022-12-24T00:37:25;14.88;;;8.45;;
65162;SDS011;51751;55.714;37.436;2022-12-24T00:39:51;28.42;;;9.45;;
65162;SDS011;51751;55.714;37.436;2022-12-24T00:42:16;12.63;;;8.07;;
65162;SDS011;51751;55.714;37.436;2022-12-24T00:44:43;17.73;;;10.00;;
65162;SDS011;51751;55.714;37.436;2022-12-24T00:47:11;16.80;;;9.45;;
65162;SDS011;51751;55.714;37.436;2022-12-24T00:49:38;15.27;;;8.40;;
65162;SDS011;51751;55.714;37.436;2022-12-24T00:52:04;21.20;;;10.73;;
65162;SDS011;51751;55.714;37.436;2022-12-24T00:54:30;20.95;;;10.27;;
65162;SDS011;51751;55.714;37.436;2022-12-24T00:56:56;16.95;;;9.38;;
65162;SDS011;51751;55.714;37.436;2022-12-24T00:59:27;19.52;;;10.40;;
65162;SDS011;51751;55.714;37.436;2022-12-24T01:01:53;14.48;;;7.80;;
65162;SDS011;51751;55.714;37.436;2022-12-24T01:04:19;14.48;;;8.68;;
65162;SDS011;51751;55.714;37.436;2022-12-24T01:07:04;15.75;;;9.80;;
65162;SDS011;51751;55.714;37.436;2022-12-24T01:09:30;16.48;;;8.75;;
65162;SDS011;51751;55.714;37.436;2022-12-24T01:11:55;19.30;;;9.57;;
65162;SDS011;51751;55.714;37.436;2022-12-24T01:14:21;16.58;;;9.68;;
65162;SDS011;51751;55.714;37.436;2022-12-24T01:16:47;19.73;;;8.63;;
65162;SDS011;51751;55.714;37.436;2022-12-24T01:19:13;15.77;;;8.70;;
65162;SDS011;51751;55.714;37.436;2022-12-24T01:21:39;17.48;;;9.88;;
65162;SDS011;51751;55.714;37.436;2022-12-24T01:24:05;21.35;;;8.90;;
65162;SDS011;51751;55.714;37.436;2022-12-24T01:26:31;17.13;;;9.73;;
65162;SDS011;51751;55.714;37.436;2022-12-24T01:28:56;13.85;;;8.18;;
65162;SDS011;51751;55.714;37.436;2022-12-24T01:31:23;17.55;;;8.80;;
65162;SDS011;51751;55.714;37.436;2022-12-24T01:33:49;15.00;;;9.20;;
65162;SDS011;51751;55.714;37.436;2022-12-24T01:36:15;15.52;;;8.40;;
65162;SDS011;51751;55.714;37.436;2022-12-24T01:38:41;19.02;;;9.65;;
65162;SDS011;51751;55.714;37.436;2022-12-24T01:41:12;18.63;;;8.70;;
65162;SDS011;51751;55.714;37.436;2022-12-24T01:46:49;16.40;;;8.38;;
65162;SDS011;51751;55.714;37.436;2022-12-24T01:49:16;15.98;;;9.02;;
65162;SDS011;51751;55.714;37.436;2022-12-24T01:51:45;16.45;;;8.35;;
65162;SDS011;51751;55.714;37.436;2022-12-24T01:54:21;15.18;;;8.55;;
65162;SDS011;51751;55.714;37.436;2022-12-24T01:56:50;16.15;;;9.50;;
65162;SDS011;51751;55.714;37.436;2022-12-24T01:59:18;20.63;;;10.15;;
65162;SDS011;51751;55.714;37.436;2022-12-24T02:01:46;14.13;;;7.35;;
65162;SDS011;51751;55.714;37.436;2022-12-24T02:04:18;15.07;;;8.07;;
65162;SDS011;51751;55.714;37.436;2022-12-24T02:06:59;15.15;;;8.77;;
65162;SDS011;51751;55.714;37.436;2022-12-24T02:09:25;14.48;;;8.52;;
65162;SDS011;51751;55.714;37.436;2022-12-24T02:11:51;14.23;;;8.25;;
65162;SDS011;51751;55.714;37.436;2022-12-24T02:14:17;16.38;;;9.75;;
65162;SDS011;51751;55.714;37.436;2022-12-24T02:16:46;14.93;;;8.52;;
65162;SDS011;51751;55.714;37.436;2022-12-24T02:19:50;15.88;;;8.15;;
65162;SDS011;51751;55.714;37.436;2022-12-24T02:33:30;14.90;;;8.45;;
65162;SDS011;51751;55.714;37.436;2022-12-24T02:38:56;16.45;;;8.63;;
65162;SDS011;51751;55.714;37.436;2022-12-24T02:41:36;19.02;;;9.65;;
65162;SDS011;51751;55.714;37.436;2022-12-24T02:44:24;15.90;;;8.75;;
65162;SDS011;51751;55.714;37.436;2022-12-24T02:46:51;17.55;;;9.75;;
65162;SDS011;51751;55.714;37.436;2022-12-24T02:49:17;17.77;;;9.45;;
65162;SDS011;51751;55.714;37.436;2022-12-24T02:51:46;14.98;;;8.45;;
65162;SDS011;51751;55.714;37.436;2022-12-24T02:54:12;18.83;;;9.77;;
65162;SDS011;51751;55.714;37.436;2022-12-24T03:04:33;17.75;;;9.43;;
65162;SDS011;51751;55.714;37.436;2022-12-24T03:13:16;20.13;;;9.45;;
65162;SDS011;51751;55.714;37.436;2022-12-24T03:15:43;17.35;;;9.15;;
65162;SDS011;51751;55.714;37.436;2022-12-24T03:18:11;20.48;;;9.45;;
65162;SDS011;51751;55.714;37.436;2022-12-24T03:20:39;15.77;;;8.82;;
65162;SDS011;51751;55.714;37.436;2022-12-24T03:23:07;18.13;;;9.70;;
65162;SDS011;51751;55.714;37.436;2022-12-24T03:25:33;18.30;;;10.00;;
65162;SDS011;51751;55.714;37.436;2022-12-24T03:28:00;16.40;;;9.55;;
65162;SDS011;51751;55.714;37.436;2022-12-24T03:30:28;18.55;;;9.98;;
65162;SDS011;51751;55.714;37.436;2022-12-24T03:32:54;17.98;;;9.52;;
65162;SDS011;51751;55.714;37.436;2022-12-24T03:35:20;17.00;;;9.90;;
65162;SDS011;51751;55.714;37.436;2022-12-24T03:37:45;14.63;;;8.63;;
65162;SDS011;51751;55.714;37.436;2022-12-24T03:40:11;16.35;;;9.43;;
65162;SDS011;51751;55.714;37.436;2022-12-24T03:42:38;17.00;;;9.70;;
65162;SDS011;51751;55.714;37.436;2022-12-24T03:45:04;20.75;;;9.88;;
65162;SDS011;51751;55.714;37.436;2022-12-24T03:47:30;19.48;;;11.43;;
65162;SDS011;51751;55.714;37.436;2022-12-24T03:49:56;17.67;;;9.25;;
65162;SDS011;51751;55.714;37.436;2022-12-24T03:52:22;17.80;;;9.95;;
65162;SDS011;51751;55.714;37.436;2022-12-24T03:54:48;18.90;;;10.82;;
65162;SDS011;51751;55.714;37.436;2022-12-24T03:57:14;20.52;;;10.80;;
65162;SDS011;51751;55.714;37.436;2022-12-24T03:59:40;23.65;;;10.88;;
65162;SDS011;51751;55.714;37.436;2022-12-24T04:02:06;19.58;;;9.88;;
65162;SDS011;51751;55.714;37.436;2022-12-24T04:04:32;16.52;;;9.90;;
65162;SDS011;51751;55.714;37.436;2022-12-24T04:07:01;19.52;;;11.18;;
65162;SDS011;51751;55.714;37.436;2022-12-24T04:09:27;20.80;;;10.40;;
65162;SDS011;51751;55.714;37.436;2022-12-24T04:11:53;23.70;;;10.63;;
65162;SDS011;51751;55.714;37.436;2022-12-24T04:14:19;18.55;;;11.10;;
65162;SDS011;51751;55.714;37.436;2022-12-24T04:16:44;25.00;;;11.43;;
65162;SDS011;51751;55.714;37.436;2022-12-24T04:19:10;22.45;;;10.95;;
65162;SDS011;51751;55.714;37.436;2022-12-24T04:21:36;24.38;;;11.98;;
65162;SDS011;51751;55.714;37.436;2022-12-24T04:24:02;18.17;;;8.98;;
65162;SDS011;51751;55.714;37.436;2022-12-24T04:26:28;21.83;;;10.57;;
65162;SDS011;51751;55.714;37.436;2022-12-24T04:28:54;18.25;;;10.02;;
65162;SDS011;51751;55.714;37.436;2022-12-24T04:31:19;19.30;;;10.10;;
65162;SDS011;51751;55.714;37.436;2022-12-24T04:33:45;18.98;;;10.73;;
65162;SDS011;51751;55.714;37.436;2022-12-24T04:36:13;22.58;;;11.30;;
65162;SDS011;51751;55.714;37.436;2022-12-24T04:38:41;21.75;;;10.80;;
65162;SDS011;51751;55.714;37.436;2022-12-24T04:41:09;21.25;;;10.95;;
65162;SDS011;51751;55.714;37.436;2022-12-24T04:43:40;17.17;;;9.43;;
65162;SDS011;51751;55.714;37.436;2022-12-24T04:46:07;19.95;;;10.90;;
65162;SDS011;51751;55.714;37.436;2022-12-24T04:48:39;20.83;;;10.77;;
65162;SDS011;51751;55.714;37.436;2022-12-24T04:51:06;18.92;;;10.30;;
65162;SDS011;51751;55.714;37.436;2022-12-24T04:53:33;23.95;;;11.68;;
65162;SDS011;51751;55.714;37.436;2022-12-24T04:55:59;19.45;;;10.07;;
65162;SDS011;51751;55.714;37.436;2022-12-24T04:58:25;18.77;;;11.10;;
65162;SDS011;51751;55.714;37.436;2022-12-24T05:00:52;20.27;;;9.20;;
65162;SDS011;51751;55.714;37.436;2022-12-24T05:03:18;19.50;;;10.88;;
65162;SDS011;51751;55.714;37.436;2022-12-24T05:05:44;22.90;;;11.70;;
65162;SDS011;51751;55.714;37.436;2022-12-24T05:08:10;19.67;;;10.18;;
65162;SDS011;51751;55.714;37.436;2022-12-24T05:10:39;22.55;;;10.45;;
65162;SDS011;51751;55.714;37.436;2022-12-24T05:13:05;23.23;;;11.65;;
65162;SDS011;51751;55.714;37.436;2022-12-24T05:15:31;20.35;;;11.02;;
65162;SDS011;51751;55.714;37.436;2022-12-24T05:17:57;22.92;;;11.20;;
65162;SDS011;51751;55.714;37.436;2022-12-24T05:20:23;20.05;;;11.32;;
65162;SDS011;51751;55.714;37.436;2022-12-24T05:23:18;22.20;;;11.60;;
65162;SDS011;51751;55.714;37.436;2022-12-24T05:26:04;26.77;;;11.23;;
65162;SDS011;51751;55.714;37.436;2022-12-24T05:28:50;22.35;;;11.23;;
65162;SDS011;51751;55.714;37.436;2022-12-24T05:31:17;24.55;;;13.40;;
65162;SDS011;51751;55.714;37.436;2022-12-24T05:33:44;23.90;;;11.90;;
65162;SDS011;51751;55.714;37.436;2022-12-24T05:36:10;19.15;;;11.20;;
65162;SDS011;51751;55.714;37.436;2022-12-24T05:38:36;22.13;;;11.57;;
65162;SDS011;51751;55.714;37.436;2022-12-24T05:41:02;20.02;;;9.80;;
65162;SDS011;51751;55.714;37.436;2022-12-24T05:43:28;19.17;;;10.77;;
65162;SDS011;51751;55.714;37.436;2022-12-24T05:46:01;20.95;;;10.45;;
65162;SDS011;51751;55.714;37.436;2022-12-24T05:48:47;20.73;;;11.35;;
65162;SDS011;51751;55.714;37.436;2022-12-24T05:51:14;22.60;;;11.07;;
65162;SDS011;51751;55.714;37.436;2022-12-24T05:53:44;20.33;;;10.77;;
65162;SDS011;51751;55.714;37.436;2022-12-24T05:56:16;21.88;;;11.18;;
65162;SDS011;51751;55.714;37.436;2022-12-24T05:58:44;21.42;;;10.88;;
65162;SDS011;51751;55.714;37.436;2022-12-24T06:01:10;20.83;;;10.93;;
65162;SDS011;51751;55.714;37.436;2022-12-24T06:03:36;19.80;;;10.18;;
65162;SDS011;51751;55.714;37.436;2022-12-24T06:06:05;17.05;;;9.50;;
65162;SDS011;51751;55.714;37.436;2022-12-24T06:08:33;18.42;;;9.10;;
65162;SDS011;51751;55.714;37.436;2022-12-24T06:11:01;19.13;;;10.02;;
65162;SDS011;51751;55.714;37.436;2022-12-24T06:13:28;15.85;;;8.90;;
65162;SDS011;51751;55.714;37.436;2022-12-24T06:15:55;16.88;;;8.80;;
65162;SDS011;51751;55.714;37.436;2022-12-24T06:18:23;19.00;;;9.43;;
65162;SDS011;51751;55.714;37.436;2022-12-24T06:20:52;16.95;;;9.70;;
65162;SDS011;51751;55.714;37.436;2022-12-24T06:23:19;19.35;;;10.65;;
65162;SDS011;51751;55.714;37.436;2022-12-24T06:25:45;17.98;;;10.43;;
65162;SDS011;51751;55.714;37.436;2022-12-24T06:28:24;20.73;;;11.02;;
65162;SDS011;51751;55.714;37.436;2022-12-24T06:30:50;18.55;;;10.07;;
65162;SDS011;51751;55.714;37.436;2022-12-24T06:33:19;23.55;;;10.10;;
65162;SDS011;51751;55.714;37.436;2022-12-24T06:35:45;19.08;;;10.13;;
65162;SDS011;51751;55.714;37.436;2022-12-24T06:38:12;20.80;;;10.18;;
65162;SDS011;51751;55.714;37.436;2022-12-24T06:40:40;20.92;;;9.90;;
65162;SDS011;51751;55.714;37.436;2022-12-24T06:43:06;18.30;;;10.07;;
65162;SDS011;51751;55.714;37.436;2022-12-24T06:45:32;22.75;;;9.88;;
65162;SDS011;51751;55.714;37.436;2022-12-24T06:47:58;19.48;;;8.88;;
65162;SDS011;51751;55.714;37.436;2022-12-24T06:50:24;17.98;;;9.43;;
65162;SDS011;51751;55.714;37.436;2022-12-24T06:52:50;22.40;;;9.90;;
65162;SDS011;51751;55.714;37.436;2022-12-24T06:55:16;21.15;;;10.30;;
65162;SDS011;51751;55.714;37.436;2022-12-24T06:57:41;16.73;;;9.40;;
65162;SDS011;51751;55.714;37.436;2022-12-24T07:00:08;16.58;;;9.43;;
65162;SDS011;51751;55.714;37.436;2022-12-24T07:02:38;14.88;;;8.70;;
65162;SDS011;51751;55.714;37.436;2022-12-24T07:05:05;17.83;;;8.95;;
65162;SDS011;51751;55.714;37.436;2022-12-24T07:07:32;15.10;;;8.00;;
65162;SDS011;51751;55.714;37.436;2022-12-24T07:10:19;16.70;;;9.13;;
65162;SDS011;51751;55.714;37.436;2022-12-24T07:12:46;16.45;;;8.07;;
65162;SDS011;51751;55.714;37.436;2022-12-24T07:15:12;18.25;;;9.25;;
65162;SDS011;51751;55.714;37.436;2022-12-24T07:17:39;19.42;;;9.13;;
65162;SDS011;51751;55.714;37.436;2022-12-24T07:20:06;15.30;;;7.90;;
65162;SDS011;51751;55.714;37.436;2022-12-24T07:22:33;18.02;;;9.32;;
65162;SDS011;51751;55.714;37.436;2022-12-24T07:24:59;17.77;;;9.98;;
65162;SDS011;51751;55.714;37.436;2022-12-24T07:27:43;17.45;;;9.50;;
65162;SDS011;51751;55.714;37.436;2022-12-24T07:30:09;17.95;;;9.57;;
65162;SDS011;51751;55.714;37.436;2022-12-24T07:32:36;20.17;;;9.88;;
65162;SDS011;51751;55.714;37.436;2022-12-24T07:35:02;24.13;;;9.95;;
65162;SDS011;51751;55.714;37.436;2022-12-24T07:37:29;19.65;;;9.25;;
65162;SDS011;51751;55.714;37.436;2022-12-24T07:39:55;18.00;;;9.77;;
65162;SDS011;51751;55.714;37.436;2022-12-24T07:42:21;22.52;;;9.75;;
65162;SDS011;51751;55.714;37.436;2022-12-24T07:44:48;22.42;;;9.70;;
65162;SDS011;51751;55.714;37.436;2022-12-24T07:47:14;23.88;;;9.90;;
65162;SDS011;51751;55.714;37.436;2022-12-24T07:49:40;15.93;;;8.45;;
65162;SDS011;51751;55.714;37.436;2022-12-24T07:52:06;18.20;;;8.20;;
65162;SDS011;51751;55.714;37.436;2022-12-24T07:54:32;18.90;;;9.25;;
65162;SDS011;51751;55.714;37.436;2022-12-24T07:56:57;14.95;;;7.50;;
65162;SDS011;51751;55.714;37.436;2022-12-24T07:59:23;17.80;;;7.40;;
65162;SDS011;51751;55.714;37.436;2022-12-24T08:01:52;15.27;;;8.27;;
65162;SDS011;51751;55.714;37.436;2022-12-24T08:04:18;14.05;;;8.52;;
65162;SDS011;51751;55.714;37.436;2022-12-24T08:06:44;13.98;;;7.72;;
65162;SDS011;51751;55.714;37.436;2022-12-24T08:09:10;13.23;;;7.60;;
65162;SDS011;51751;55.714;37.436;2022-12-24T08:11:38;12.93;;;7.30;;
65162;SDS011;51751;55.714;37.436;2022-12-24T08:14:04;15.82;;;7.70;;
65162;SDS011;51751;55.714;37.436;2022-12-24T08:16:31;14.00;;;7.38;;
65162;SDS011;51751;55.714;37.436;2022-12-24T08:18:57;12.52;;;7.20;;
65162;SDS011;51751;55.714;37.436;2022-12-24T08:21:23;11.38;;;7.07;;
65162;SDS011;51751;55.714;37.436;2022-12-24T08:23:49;12.30;;;7.85;;
65162;SDS011;51751;55.714;37.436;2022-12-24T08:26:16;16.50;;;8.68;;
65162;SDS011;51751;55.714;37.436;2022-12-24T08:28:41;15.13;;;9.57;;
65162;SDS011;51751;55.714;37.436;2022-12-24T08:31:07;14.98;;;8.48;;
65162;SDS011;51751;55.714;37.436;2022-12-24T08:33:33;20.25;;;9.15;;
65162;SDS011;51751;55.714;37.436;2022-12-24T08:36:00;25.45;;;10.35;;
65162;SDS011;51751;55.714;37.436;2022-12-24T08:38:29;15.43;;;9.30;;
65162;SDS011;51751;55.714;37.436;2022-12-24T08:40:55;14.10;;;8.02;;
65162;SDS011;51751;55.714;37.436;2022-12-24T08:43:21;12.68;;;7.60;;
65162;SDS011;51751;55.714;37.436;2022-12-24T08:45:49;15.07;;;6.78;;
65162;SDS011;51751;55.714;37.436;2022-12-24T08:48:16;13.93;;;6.93;;
65162;SDS011;51751;55.714;37.436;2022-12-24T08:50:41;12.90;;;6.95;;
65162;SDS011;51751;55.714;37.436;2022-12-24T08:53:08;13.55;;;7.15;;
65162;SDS011;51751;55.714;37.436;2022-12-24T08:55:34;9.27;;;6.03;;
65162;SDS011;51751;55.714;37.436;2022-12-24T08:58:01;11.30;;;7.10;;
65162;SDS011;51751;55.714;37.436;2022-12-24T09:00:27;10.50;;;6.00;;
65162;SDS011;51751;55.714;37.436;2022-12-24T09:02:54;10.98;;;5.78;;
65162;SDS011;51751;55.714;37.436;2022-12-24T09:05:20;10.60;;;5.80;;
65162;SDS011;51751;55.714;37.436;2022-12-24T09:07:46;9.43;;;5.72;;
65162;SDS011;51751;55.714;37.436;2022-12-24T09:10:12;11.82;;;6.60;;
65162;SDS011;51751;55.714;37.436;2022-12-24T09:12:41;13.25;;;6.50;;
65162;SDS011;51751;55.714;37.436;2022-12-24T09:15:08;12.73;;;6.95;;
65162;SDS011;51751;55.714;37.436;2022-12-24T09:17:34;10.25;;;6.22;;
65162;SDS011;51751;55.714;37.436;2022-12-24T09:20:00;10.73;;;6.65;;
65162;SDS011;51751;55.714;37.436;2022-12-24T09:22:29;11.18;;;6.95;;
65162;SDS011;51751;55.714;37.436;2022-12-24T09:24:55;11.70;;;6.57;;
65162;SDS011;51751;55.714;37.436;2022-12-24T09:27:40;11.13;;;6.40;;
65162;SDS011;51751;55.714;37.436;2022-12-24T09:30:06;9.35;;;6.10;;
65162;SDS011;51751;55.714;37.436;2022-12-24T09:32:35;10.95;;;5.78;;
65162;SDS011;51751;55.714;37.436;2022-12-24T09:35:04;9.68;;;6.07;;
65162;SDS011;51751;55.714;37.436;2022-12-24T09:37:30;10.77;;;6.63;;
65162;SDS011;51751;55.714;37.436;2022-12-24T09:39:56;11.88;;;6.47;;
65162;SDS011;51751;55.714;37.436;2022-12-24T09:45:19;13.77;;;6.32;;
65162;SDS011;51751;55.714;37.436;2022-12-24T09:47:58;10.57;;;6.35;;
65162;SDS011;51751;55.714;37.436;2022-12-24T09:53:29;11.25;;;6.03;;
65162;SDS011;51751;55.714;37.436;2022-12-24T09:56:12;10.05;;;6.03;;
65162;SDS011;51751;55.714;37.436;2022-12-24T10:01:37;12.55;;;6.53;;
65162;SDS011;51751;55.714;37.436;2022-12-24T10:04:05;10.02;;;5.70;;
65162;SDS011;51751;55.714;37.436;2022-12-24T10:12:02;10.52;;;5.95;;
65162;SDS011;51751;55.714;37.436;2022-12-24T10:14:34;11.05;;;5.82;;
65162;SDS011;51751;55.714;37.436;2022-12-24T10:22:58;9.63;;;5.43;;
65162;SDS011;51751;55.714;37.436;2022-12-24T10:27:52;11.05;;;6.10;;
65162;SDS011;51751;55.714;37.436;2022-12-24T10:30:20;9.95;;;6.10;;
65162;SDS011;51751;55.714;37.436;2022-12-24T10:32:47;10.27;;;6.30;;
65162;SDS011;51751;55.714;37.436;2022-12-24T10:37:42;11.15;;;6.43;;
65162;SDS011;51751;55.714;37.436;2022-12-24T10:40:23;12.75;;;6.82;;
65162;SDS011;51751;55.714;37.436;2022-12-24T10:42:52;8.73;;;5.30;;
65162;SDS011;51751;55.714;37.436;2022-12-24T10:45:22;9.80;;;5.70;;
65162;SDS011;51751;55.714;37.436;2022-12-24T10:47:50;10.32;;;5.85;;
65162;SDS011;51751;55.714;37.436;2022-12-24T10:52:48;15.85;;;7.57;;
65162;SDS011;51751;55.714;37.436;2022-12-24T10:57:42;10.18;;;6.00;;
65162;SDS011;51751;55.714;37.436;2022-12-24T11:00:18;9.02;;;5.40;;
65162;SDS011;51751;55.714;37.436;2022-12-24T11:02:46;11.13;;;6.85;;
65162;SDS011;51751;55.714;37.436;2022-12-24T11:05:31;10.52;;;6.95;;
65162;SDS011;51751;55.714;37.436;2022-12-24T11:10:29;11.18;;;6.82;;
65162;SDS011;51751;55.714;37.436;2022-12-24T11:12:56;11.73;;;6.32;;
65162;SDS011;51751;55.714;37.436;2022-12-24T11:15:29;8.85;;;5.60;;
65162;SDS011;51751;55.714;37.436;2022-12-24T11:17:59;10.35;;;6.18;;
65162;SDS011;51751;55.714;37.436;2022-12-24T11:20:32;13.50;;;7.22;;
65162;SDS011;51751;55.714;37.436;2022-12-24T11:22:58;15.70;;;7.43;;
65162;SDS011;51751;55.714;37.436;2022-12-24T11:25:30;12.73;;;6.07;;
65162;SDS011;51751;55.714;37.436;2022-12-24T11:28:10;11.57;;;5.97;;
65162;SDS011;51751;55.714;37.436;2022-12-24T11:30:37;11.05;;;6.57;;
65162;SDS011;51751;55.714;37.436;2022-12-24T11:35:32;10.60;;;6.10;;
65162;SDS011;51751;55.714;37.436;2022-12-24T11:40:27;12.75;;;6.68;;
65162;SDS011;51751;55.714;37.436;2022-12-24T11:42:58;16.25;;;6.70;;
65162;SDS011;51751;55.714;37.436;2022-12-24T11:45:26;16.70;;;5.63;;
65162;SDS011;51751;55.714;37.436;2022-12-24T11:47:53;13.07;;;5.95;;
65162;SDS011;51751;55.714;37.436;2022-12-24T11:50:29;15.65;;;5.75;;
65162;SDS011;51751;55.714;37.436;2022-12-24T11:55:46;14.90;;;5.00;;
65162;SDS011;51751;55.714;37.436;2022-12-24T12:00:45;8.38;;;5.13;;
65162;SDS011;51751;55.714;37.436;2022-12-24T12:03:24;11.18;;;4.63;;
65162;SDS011;51751;55.714;37.436;2022-12-24T12:05:54;8.57;;;5.10;;
65162;SDS011;51751;55.714;37.436;2022-12-24T12:08:21;9.90;;;6.28;;
65162;SDS011;51751;55.714;37.436;2022-12-24T12:10:47;9.32;;;5.88;;
65162;SDS011;51751;55.714;37.436;2022-12-24T12:13:15;8.15;;;5.15;;
65162;SDS011;51751;55.714;37.436;2022-12-24T12:16:19;8.73;;;5.47;;
65162;SDS011;51751;55.714;37.436;2022-12-24T12:19:02;8.13;;;5.25;;
65162;SDS011;51751;55.714;37.436;2022-12-24T12:21:33;7.28;;;4.78;;
65162;SDS011;51751;55.714;37.436;2022-12-24T12:24:03;6.82;;;4.28;;
65162;SDS011;51751;55.714;37.436;2022-12-24T12:26:32;8.90;;;5.35;;
65162;SDS011;51751;55.714;37.436;2022-12-24T12:31:55;11.10;;;4.93;;
65162;SDS011;51751;55.714;37.436;2022-12-24T12:34:30;8.38;;;4.20;;
65162;SDS011;51751;55.714;37.436;2022-12-24T12:37:04;10.35;;;4.22;;
65162;SDS011;51751;55.714;37.436;2022-12-24T12:39:33;6.00;;;3.80;;
65162;SDS011;51751;55.714;37.436;2022-12-24T12:50:57;7.03;;;4.57;;
65162;SDS011;51751;55.714;37.436;2022-12-24T12:56:28;8.40;;;4.93;;
65162;SDS011;51751;55.714;37.436;2022-12-24T12:59:03;5.68;;;3.67;;
65162;SDS011;51751;55.714;37.436;2022-12-24T13:21:44;7.18;;;4.60;;
65162;SDS011;51751;55.714;37.436;2022-12-24T13:24:20;9.23;;;4.80;;
65162;SDS011;51751;55.714;37.436;2022-12-24T13:29:54;10.80;;;5.32;;
65162;SDS011;51751;55.714;37.436;2022-12-24T13:34:49;6.85;;;4.90;;
65162;SDS011;51751;55.714;37.436;2022-12-24T13:48:12;10.85;;;4.80;;
65162;SDS011;51751;55.714;37.436;2022-12-24T13:53:25;7.65;;;4.35;;
65162;SDS011;51751;55.714;37.436;2022-12-24T14:01:59;7.95;;;5.15;;
65162;SDS011;51751;55.714;37.436;2022-12-24T14:04:26;8.73;;;5.10;;
65162;SDS011;51751;55.714;37.436;2022-12-24T14:06:54;8.25;;;4.38;;
65162;SDS011;51751;55.714;37.436;2022-12-24T14:09:23;4.60;;;3.53;;
65162;SDS011;51751;55.714;37.436;2022-12-24T14:16:59;11.00;;;4.68;;
65162;SDS011;51751;55.714;37.436;2022-12-24T14:20:12;7.70;;;3.95;;
65162;SDS011;51751;55.714;37.436;2022-12-24T14:24:53;7.95;;;4.40;;
65162;SDS011;51751;55.714;37.436;2022-12-24T14:27:44;7.13;;;4.00;;
65162;SDS011;51751;55.714;37.436;2022-12-24T14:30:22;9.95;;;4.05;;
65162;SDS011;51751;55.714;37.436;2022-12-24T14:32:51;5.18;;;4.00;;
65162;SDS011;51751;55.714;37.436;2022-12-24T14:35:19;6.78;;;4.32;;
65162;SDS011;51751;55.714;37.436;2022-12-24T14:37:57;7.70;;;4.80;;
65162;SDS011;51751;55.714;37.436;2022-12-24T14:40:28;5.88;;;4.13;;
65162;SDS011;51751;55.714;37.436;2022-12-24T14:42:57;6.20;;;4.20;;
65162;SDS011;51751;55.714;37.436;2022-12-24T14:45:32;6.88;;;4.50;;
65162;SDS011;51751;55.714;37.436;2022-12-24T14:56:38;10.20;;;4.28;;
65162;SDS011;51751;55.714;37.436;2022-12-24T14:59:13;6.45;;;4.32;;
65162;SDS011;51751;55.714;37.436;2022-12-24T15:01:40;7.40;;;4.47;;
65162;SDS011;51751;55.714;37.436;2022-12-24T15:06:53;10.30;;;4.55;;
65162;SDS011;51751;55.714;37.436;2022-12-24T15:09:26;6.82;;;4.28;;
65162;SDS011;51751;55.714;37.436;2022-12-24T15:11:54;9.43;;;4.50;;
65162;SDS011;51751;55.714;37.436;2022-12-24T15:14:23;6.72;;;4.32;;
65162;SDS011;51751;55.714;37.436;2022-12-24T15:17:00;6.63;;;3.90;;
65162;SDS011;51751;55.714;37.436;2022-12-24T15:19:37;7.57;;;4.13;;
65162;SDS011;51751;55.714;37.436;2022-12-24T15:22:25;6.65;;;4.50;;
65162;SDS011;51751;55.714;37.436;2022-12-24T15:25:43;5.82;;;3.92;;
65162;SDS011;51751;55.714;37.436;2022-12-24T15:28:13;6.25;;;4.10;;
65162;SDS011;51751;55.714;37.436;2022-12-24T15:31:12;5.80;;;4.13;;
65162;SDS011;51751;55.714;37.436;2022-12-24T15:33:39;6.47;;;4.28;;
65162;SDS011;51751;55.714;37.436;2022-12-24T15:36:09;5.72;;;3.88;;
65162;SDS011;51751;55.714;37.436;2022-12-24T15:38:36;6.15;;;4.03;;
65162;SDS011;51751;55.714;37.436;2022-12-24T15:41:25;5.30;;;4.07;;
65162;SDS011;51751;55.714;37.436;2022-12-24T15:44:11;9.15;;;4.00;;
65162;SDS011;51751;55.714;37.436;2022-12-24T15:47:00;6.68;;;4.43;;
65162;SDS011;51751;55.714;37.436;2022-12-24T15:49:27;8.98;;;5.00;;
65162;SDS011;51751;55.714;37.436;2022-12-24T15:52:05;7.03;;;4.05;;
65162;SDS011;51751;55.714;37.436;2022-12-24T15:54:51;7.75;;;4.47;;
65162;SDS011;51751;55.714;37.436;2022-12-24T15:57:31;8.02;;;4.50;;
65162;SDS011;51751;55.714;37.436;2022-12-24T16:00:20;6.03;;;4.28;;
65162;SDS011;51751;55.714;37.436;2022-12-24T16:03:08;7.35;;;4.07;;
65162;SDS011;51751;55.714;37.436;2022-12-24T16:05:37;7.35;;;4.30;;
65162;SDS011;51751;55.714;37.436;2022-12-24T16:08:25;5.82;;;4.15;;
65162;SDS011;51751;55.714;37.436;2022-12-24T16:13:41;8.70;;;5.05;;
65162;SDS011;51751;55.714;37.436;2022-12-24T16:16:15;7.63;;;4.60;;
65162;SDS011;51751;55.714;37.436;2022-12-24T16:21:33;9.27;;;4.93;;
65162;SDS011;51751;55.714;37.436;2022-12-24T16:26:31;6.80;;;4.57;;
65162;SDS011;51751;55.714;37.436;2022-12-24T16:28:58;7.57;;;4.85;;
65162;SDS011;51751;55.714;37.436;2022-12-24T16:31:44;8.10;;;4.80;;
65162;SDS011;51751;55.714;37.436;2022-12-24T16:34:23;8.20;;;4.70;;
65162;SDS011;51751;55.714;37.436;2022-12-24T16:36:51;5.97;;;3.90;;
65162;SDS011;51751;55.714;37.436;2022-12-24T16:39:18;8.60;;;4.65;;
65162;SDS011;51751;55.714;37.436;2022-12-24T16:41:53;8.38;;;5.50;;
65162;SDS011;51751;55.714;37.436;2022-12-24T16:44:41;6.85;;;4.72;;
65162;SDS011;51751;55.714;37.436;2022-12-24T16:47:49;8.70;;;4.55;;
65162;SDS011;51751;55.714;37.436;2022-12-24T16:50:00;8.10;;;4.78;;
65162;SDS011;51751;55.714;37.436;2022-12-24T16:52:29;6.28;;;4.60;;
65162;SDS011;51751;55.714;37.436;2022-12-24T16:54:58;8.52;;;4.75;;
65162;SDS011;51751;55.714;37.436;2022-12-24T16:57:25;7.90;;;4.50;;
65162;SDS011;51751;55.714;37.436;2022-12-24T17:00:18;7.90;;;4.45;;
65162;SDS011;51751;55.714;37.436;2022-12-24T17:02:46;6.28;;;4.30;;
65162;SDS011;51751;55.714;37.436;2022-12-24T17:05:13;7.90;;;4.68;;
65162;SDS011;51751;55.714;37.436;2022-12-24T17:07:39;7.18;;;4.20;;
65162;SDS011;51751;55.714;37.436;2022-12-24T17:10:08;7.25;;;4.65;;
65162;SDS011;51751;55.714;37.436;2022-12-24T17:12:54;7.80;;;4.22;;
65162;SDS011;51751;55.714;37.436;2022-12-24T17:15:20;7.65;;;4.20;;
65162;SDS011;51751;55.714;37.436;2022-12-24T17:17:46;6.85;;;3.78;;
65162;SDS011;51751;55.714;37.436;2022-12-24T17:20:14;6.05;;;3.95;;